createdAt,value
2023-02-23T00:00:56.004Z,10.25
2023-02-23T00:03:23.070Z,10.25
2023-02-23T00:05:49.866Z,10.22
2023-02-23T00:08:16.829Z,10.22
2023-02-23T00:10:43.600Z,10.11
2023-02-23T00:13:10.533Z,10.07
2023-02-23T00:15:37.360Z,10.06
2023-02-23T00:18:05.949Z,10.07
2023-02-23T00:20:32.936Z,10.10
2023-02-23T00:22:59.786Z,10.18
2023-02-23T00:25:26.650Z,10.18
2023-02-23T00:27:53.679Z,10.26
2023-02-23T00:30:20.934Z,10.32
2023-02-23T00:32:51.093Z,10.38
2023-02-23T00:35:19.745Z,10.41
2023-02-23T00:37:48.674Z,10.39
2023-02-23T00:40:18.471Z,10.43
2023-02-23T00:42:47.285Z,10.41
2023-02-23T00:45:14.787Z,10.42
2023-02-23T00:47:44.136Z,10.46
2023-02-23T00:50:17.970Z,10.52
2023-02-23T00:52:47.720Z,10.51
2023-02-23T00:55:15.729Z,10.34
2023-02-23T00:57:42.735Z,10.02
2023-02-23T01:00:12.772Z,9.93
2023-02-23T01:02:39.750Z,10.10
2023-02-23T01:05:07.273Z,10.22
2023-02-23T01:07:34.326Z,10.22
2023-02-23T01:10:02.581Z,10.26
2023-02-23T01:12:30.122Z,10.23
2023-02-23T01:14:56.845Z,10.17
2023-02-23T01:17:23.556Z,10.22
2023-02-23T01:19:50.384Z,10.29
2023-02-23T01:22:17.221Z,10.35
2023-02-23T01:24:45.123Z,10.39
2023-02-23T01:27:13.489Z,10.41
2023-02-23T01:29:40.305Z,10.44
2023-02-23T01:32:07.617Z,10.49
2023-02-23T01:34:34.493Z,10.50
2023-02-23T01:37:01.259Z,10.54
2023-02-23T01:39:29.096Z,10.55
2023-02-23T01:41:56.705Z,10.58
2023-02-23T01:45:20.922Z,10.61
2023-02-23T01:47:51.620Z,10.64
2023-02-23T01:50:22.814Z,10.45
2023-02-23T01:52:55.443Z,10.43
2023-02-23T01:55:26.900Z,10.43
2023-02-23T01:58:02.495Z,10.42
2023-02-23T02:00:30.071Z,10.25
2023-02-23T02:03:01.266Z,9.92
2023-02-23T02:05:30.177Z,10.03
2023-02-23T02:07:58.557Z,10.12
2023-02-23T02:10:28.138Z,10.21
2023-02-23T02:12:57.471Z,10.26
2023-02-23T02:15:35.738Z,10.30
2023-02-23T02:18:17.075Z,10.32
2023-02-23T02:21:38.818Z,10.34
2023-02-23T02:24:41.690Z,10.35
2023-02-23T02:27:33.744Z,10.16
2023-02-23T02:31:00.822Z,10.13
2023-02-23T02:34:08.182Z,9.76
2023-02-23T02:37:10.294Z,9.68
2023-02-23T02:39:53.764Z,9.84
2023-02-23T02:42:34.081Z,9.98
2023-02-23T02:45:11.797Z,10.07
2023-02-23T02:47:47.672Z,10.16
2023-02-23T02:50:25.781Z,10.26
2023-02-23T02:53:02.720Z,10.31
2023-02-23T02:55:34.213Z,10.36
2023-02-23T02:58:05.713Z,10.38
2023-02-23T03:00:38.920Z,10.41
2023-02-23T03:03:06.099Z,10.39
2023-02-23T03:05:41.953Z,10.20
2023-02-23T03:08:22.599Z,10.15
2023-02-23T03:11:01.988Z,9.95
2023-02-23T03:13:46.273Z,9.72
2023-02-23T03:16:26.816Z,9.49
2023-02-23T03:19:13.450Z,9.47
2023-02-23T03:21:51.796Z,9.52
2023-02-23T03:24:34.571Z,9.46
2023-02-23T03:27:16.971Z,9.49
2023-02-23T03:29:55.300Z,9.52
2023-02-23T03:32:30.204Z,9.57
2023-02-23T03:35:07.358Z,9.69
2023-02-23T03:37:46.239Z,9.73
2023-02-23T03:40:23.593Z,9.67
2023-02-23T03:42:57.489Z,9.67
2023-02-23T03:45:35.873Z,9.68
2023-02-23T03:48:10.063Z,9.69
2023-02-23T03:50:42.980Z,9.92
2023-02-23T03:53:14.387Z,10.06
2023-02-23T03:55:51.364Z,9.87
2023-02-23T03:58:26.181Z,9.90
2023-02-23T04:00:57.246Z,10.09
2023-02-23T04:03:29.039Z,10.21
2023-02-23T04:05:58.210Z,10.31
2023-02-23T04:08:39.567Z,10.37
2023-02-23T04:11:20.071Z,10.41
2023-02-23T04:13:58.803Z,10.46
2023-02-23T04:16:30.385Z,10.51
2023-02-23T04:18:58.348Z,10.49
2023-02-23T04:21:25.446Z,10.49
2023-02-23T04:23:53.033Z,10.51
2023-02-23T04:26:21.663Z,10.49
2023-02-23T04:28:48.952Z,10.51
2023-02-23T04:31:16.191Z,10.49
2023-02-23T04:33:45.932Z,10.45
2023-02-23T04:36:15.094Z,10.43
2023-02-23T04:38:45.254Z,10.39
2023-02-23T04:41:12.657Z,10.41
2023-02-23T04:43:40.999Z,10.40
2023-02-23T04:46:07.972Z,10.35
2023-02-23T04:48:35.369Z,10.37
2023-02-23T04:51:02.365Z,10.37
2023-02-23T04:53:30.353Z,10.40
2023-02-23T04:55:57.321Z,10.40
2023-02-23T04:58:24.614Z,10.39
2023-02-23T05:00:53.355Z,10.29
2023-02-23T05:03:25.646Z,10.09
2023-02-23T05:05:53.050Z,9.94
2023-02-23T05:08:20.314Z,9.73
2023-02-23T05:10:47.464Z,9.72
2023-02-23T05:13:14.336Z,9.72
2023-02-23T05:15:41.356Z,9.76
2023-02-23T05:18:09.659Z,9.80
2023-02-23T05:20:36.759Z,9.78
2023-02-23T05:23:03.693Z,9.55
2023-02-23T05:25:30.602Z,9.35
2023-02-23T05:27:57.515Z,9.39
2023-02-23T05:30:24.414Z,9.48
2023-02-23T05:32:51.215Z,9.52
2023-02-23T05:35:19.469Z,9.57
2023-02-23T05:37:46.394Z,9.69
2023-02-23T05:40:14.239Z,9.82
2023-02-23T05:42:41.445Z,9.90
2023-02-23T05:45:08.646Z,10.00
2023-02-23T05:47:35.411Z,10.07
2023-02-23T05:50:03.427Z,10.12
2023-02-23T05:52:31.715Z,10.14
2023-02-23T05:54:58.682Z,10.16
2023-02-23T05:57:25.585Z,10.13
2023-02-23T05:59:52.505Z,10.13
2023-02-23T06:02:19.542Z,10.13
2023-02-23T06:04:46.313Z,10.09
2023-02-23T06:07:14.447Z,10.09
2023-02-23T06:09:44.460Z,10.06
2023-02-23T06:12:11.490Z,9.97
2023-02-23T06:14:38.521Z,9.79
2023-02-23T06:17:05.382Z,9.70
2023-02-23T06:19:32.221Z,9.68
2023-02-23T06:21:59.114Z,9.63
2023-02-23T06:24:26.254Z,9.66
2023-02-23T06:26:54.357Z,9.58
2023-02-23T06:29:21.120Z,9.41
2023-02-23T06:31:48.548Z,9.40
2023-02-23T06:34:15.407Z,9.53
2023-02-23T06:36:43.017Z,9.57
2023-02-23T06:39:11.762Z,9.69
2023-02-23T06:41:38.630Z,9.79
2023-02-23T06:44:07.020Z,9.90
2023-02-23T06:46:33.872Z,9.99
2023-02-23T06:49:02.158Z,10.03
2023-02-23T06:51:29.080Z,10.03
2023-02-23T06:53:55.901Z,10.08
2023-02-23T06:56:22.820Z,10.08
2023-02-23T06:58:49.719Z,9.99
2023-02-23T07:01:18.038Z,9.85
2023-02-23T07:03:44.952Z,9.78
2023-02-23T07:06:11.760Z,9.89
2023-02-23T07:08:41.591Z,9.96
2023-02-23T07:11:11.544Z,10.05
2023-02-23T07:13:40.158Z,10.15
2023-02-23T07:16:08.329Z,10.28
2023-02-23T07:18:36.543Z,10.26
2023-02-23T07:21:03.476Z,10.38
2023-02-23T07:23:30.181Z,10.33
2023-02-23T07:25:57.018Z,10.43
2023-02-23T07:28:24.372Z,10.47
2023-02-23T07:30:51.401Z,10.56
2023-02-23T07:33:18.179Z,10.63
2023-02-23T07:35:46.281Z,10.67
2023-02-23T07:38:13.302Z,10.29
2023-02-23T07:40:40.310Z,10.44
2023-02-23T07:43:07.566Z,10.56
2023-02-23T07:45:34.527Z,10.73
2023-02-23T07:48:01.791Z,11.05
2023-02-23T07:50:28.831Z,11.34
2023-02-23T07:52:57.071Z,11.44
2023-02-23T07:55:23.864Z,11.56
2023-02-23T07:57:51.809Z,11.66
2023-02-23T08:00:19.777Z,11.72
2023-02-23T08:02:54.960Z,11.78
2023-02-23T08:05:22.317Z,11.61
2023-02-23T08:07:49.352Z,11.33
2023-02-23T08:10:18.450Z,10.66
2023-02-23T08:12:45.416Z,10.60
2023-02-23T08:15:12.273Z,10.67
2023-02-23T08:17:40.376Z,10.35
2023-02-23T08:20:11.996Z,10.10
2023-02-23T08:22:49.016Z,10.12
2023-02-23T08:25:18.197Z,10.47
2023-02-23T08:27:45.280Z,10.43
2023-02-23T08:30:13.802Z,10.57
2023-02-23T08:32:43.628Z,10.31
2023-02-23T08:35:11.557Z,10.38
2023-02-23T08:37:38.337Z,10.60
2023-02-23T08:40:06.716Z,10.71
2023-02-23T08:42:35.052Z,10.91
2023-02-23T08:45:02.386Z,11.00
2023-02-23T08:47:30.332Z,11.16
2023-02-23T08:49:58.282Z,11.32
2023-02-23T08:52:25.136Z,11.27
2023-02-23T08:54:52.763Z,11.26
2023-02-23T08:57:19.529Z,10.61
2023-02-23T08:59:47.710Z,10.38
2023-02-23T09:02:15.606Z,10.44
2023-02-23T09:04:42.593Z,10.38
2023-02-23T09:07:16.078Z,10.56
2023-02-23T09:09:43.650Z,10.86
2023-02-23T09:12:12.631Z,11.43
2023-02-23T09:14:39.316Z,11.61
2023-02-23T09:17:07.667Z,12.65
2023-02-23T09:19:34.406Z,13.88
2023-02-23T09:22:01.512Z,15.15
2023-02-23T09:24:28.318Z,16.09
2023-02-23T09:26:55.422Z,16.10
2023-02-23T09:29:22.429Z,16.33
2023-02-23T09:31:49.744Z,16.24
2023-02-23T09:34:18.025Z,15.62
2023-02-23T09:36:45.096Z,16.05
2023-02-23T09:39:11.912Z,16.65
2023-02-23T09:42:10.173Z,16.99
2023-02-23T09:44:54.305Z,16.78
2023-02-23T09:47:36.945Z,17.40
2023-02-23T09:50:20.346Z,17.17
2023-02-23T09:52:56.407Z,18.71
2023-02-23T09:55:26.790Z,19.17
2023-02-23T09:57:57.988Z,19.06
2023-02-23T10:00:27.208Z,19.82
2023-02-23T10:03:16.541Z,20.55
2023-02-23T10:05:54.726Z,20.65
2023-02-23T10:08:39.049Z,20.43
2023-02-23T10:11:21.287Z,21.33
2023-02-23T10:14:04.327Z,21.17
2023-02-23T10:16:45.186Z,21.16
2023-02-23T10:19:24.937Z,20.98
2023-02-23T10:21:59.094Z,19.39
2023-02-23T10:24:33.650Z,17.56
2023-02-23T10:27:10.775Z,18.73
2023-02-23T10:29:46.208Z,19.24
2023-02-23T10:32:23.362Z,20.79
2023-02-23T10:34:55.394Z,21.19
2023-02-23T10:37:25.757Z,20.92
2023-02-23T10:39:54.254Z,20.33
2023-02-23T10:42:27.574Z,20.20
2023-02-23T10:44:56.823Z,19.82
2023-02-23T10:47:29.924Z,19.82
2023-02-23T10:49:58.866Z,20.21
2023-02-23T10:52:42.276Z,20.44
2023-02-23T10:55:25.312Z,22.55
2023-02-23T10:58:09.815Z,22.90
2023-02-23T11:00:40.191Z,23.86
2023-02-23T11:03:32.980Z,23.26
2023-02-23T11:06:00.779Z,20.39
2023-02-23T11:08:33.970Z,17.64
2023-02-23T11:11:24.032Z,17.28
2023-02-23T11:13:52.174Z,15.67
2023-02-23T11:19:21.189Z,14.83
2023-02-23T11:21:52.625Z,14.43
2023-02-23T11:24:26.465Z,13.94
2023-02-23T11:26:57.615Z,13.66
2023-02-23T11:29:32.109Z,13.92
2023-02-23T11:32:06.804Z,13.83
2023-02-23T11:34:41.568Z,13.81
2023-02-23T11:37:24.406Z,14.14
2023-02-23T11:43:38.159Z,14.47
2023-02-23T11:46:17.663Z,14.42
2023-02-23T11:48:52.435Z,14.19
2023-02-23T11:51:31.745Z,14.22
2023-02-23T11:54:00.917Z,14.41
2023-02-23T11:56:34.135Z,14.66
2023-02-23T11:59:06.609Z,14.83
2023-02-23T12:01:47.261Z,14.95
2023-02-23T12:04:28.625Z,15.05
2023-02-23T12:07:25.548Z,15.10
2023-02-23T12:10:06.602Z,15.12
2023-02-23T12:12:49.342Z,15.12
2023-02-23T12:15:32.812Z,15.28
2023-02-23T12:18:12.103Z,15.45
2023-02-23T12:20:45.884Z,15.58
2023-02-23T12:23:21.761Z,15.67
2023-02-23T12:25:56.740Z,15.68
2023-02-23T12:28:33.935Z,15.73
2023-02-23T12:31:13.706Z,15.74
2023-02-23T12:33:48.315Z,15.68
2023-02-23T12:36:38.898Z,15.64
2023-02-23T12:39:21.068Z,15.67
2023-02-23T12:41:58.736Z,15.66
2023-02-23T12:44:56.889Z,15.67
2023-02-23T12:47:40.261Z,15.61
2023-02-23T12:50:28.047Z,15.59
2023-02-23T12:53:07.884Z,15.57
2023-02-23T12:55:50.619Z,15.50
2023-02-23T12:58:33.614Z,15.48
2023-02-23T13:01:13.306Z,15.45
2023-02-23T13:04:26.781Z,15.48
2023-02-23T13:07:26.639Z,15.39
2023-02-23T13:10:14.384Z,15.15
2023-02-23T13:12:57.025Z,15.10
2023-02-23T13:15:44.120Z,15.10
2023-02-23T13:18:24.335Z,15.11
2023-02-23T13:21:02.378Z,15.14
2023-02-23T13:23:41.811Z,15.13
2023-02-23T13:26:27.932Z,15.12
2023-02-23T13:29:05.257Z,15.09
2023-02-23T13:31:38.094Z,15.13
2023-02-23T13:34:16.877Z,15.14
2023-02-23T13:36:45.182Z,15.18
2023-02-23T13:39:47.484Z,15.16
2023-02-23T13:42:39.977Z,15.06
2023-02-23T13:45:31.609Z,14.97
2023-02-23T13:48:13.339Z,14.96
2023-02-23T13:50:52.530Z,14.82
2023-02-23T13:53:37.599Z,14.66
2023-02-23T13:56:08.659Z,14.63
2023-02-23T13:58:37.211Z,14.67
2023-02-23T14:01:14.182Z,14.71
2023-02-23T14:03:52.029Z,14.67
2023-02-23T14:06:29.159Z,14.79
2023-02-23T14:09:00.489Z,14.81
2023-02-23T14:11:49.014Z,14.82
2023-02-23T14:14:42.029Z,14.91
2023-02-23T14:18:01.867Z,14.77
2023-02-23T14:20:52.052Z,14.81
2023-02-23T14:23:52.625Z,15.02
2023-02-23T14:26:44.280Z,15.28
2023-02-23T14:29:28.958Z,15.46
2023-02-23T14:32:29.405Z,15.55
2023-02-23T14:34:59.404Z,15.61
2023-02-23T14:37:34.306Z,15.50
2023-02-23T14:40:12.394Z,15.58
2023-02-23T14:42:40.670Z,15.61
2023-02-23T14:45:21.939Z,15.48
2023-02-23T14:47:51.779Z,15.51
2023-02-23T14:50:27.134Z,15.51
2023-02-23T14:52:57.068Z,15.43
2023-02-23T14:55:29.234Z,15.45
2023-02-23T14:57:57.333Z,15.38
2023-02-23T15:01:01.035Z,15.36
2023-02-23T15:04:51.617Z,15.24
2023-02-23T15:08:12.667Z,15.17
2023-02-23T15:11:29.173Z,15.14
2023-02-23T15:13:59.189Z,15.03
2023-02-23T15:16:32.997Z,14.97
2023-02-23T15:19:04.888Z,14.86
2023-02-23T15:21:31.809Z,14.87
2023-02-23T15:24:07.542Z,14.89
2023-02-23T15:26:38.566Z,14.88
2023-02-23T15:29:11.967Z,14.88
2023-02-23T15:31:39.038Z,14.89
2023-02-23T15:34:09.144Z,14.90
2023-02-23T15:36:39.657Z,14.90
2023-02-23T15:39:16.025Z,14.90
2023-02-23T15:41:49.156Z,14.87
2023-02-23T15:44:24.148Z,14.90
2023-02-23T15:46:55.899Z,14.87
2023-02-23T15:49:29.230Z,14.87
2023-02-23T15:52:01.966Z,14.82
2023-02-23T15:54:34.160Z,14.76
2023-02-23T15:57:08.717Z,14.73
2023-02-23T15:59:39.274Z,14.71
2023-02-23T16:02:16.388Z,14.72
2023-02-23T16:04:43.843Z,14.72
2023-02-23T16:07:19.473Z,14.69
2023-02-23T16:09:53.509Z,14.70
2023-02-23T16:12:29.011Z,14.68
2023-02-23T16:15:00.310Z,14.63
2023-02-23T16:17:35.231Z,14.63
2023-02-23T16:20:16.370Z,14.62
2023-02-23T16:22:45.921Z,14.61
2023-02-23T16:25:17.970Z,14.58
2023-02-23T16:28:02.595Z,14.56
2023-02-23T16:30:40.709Z,14.54
2023-02-23T16:33:16.708Z,14.49
2023-02-23T16:35:47.741Z,14.47
2023-02-23T16:38:24.963Z,14.40
2023-02-23T16:40:52.282Z,14.33
2023-02-23T16:43:20.703Z,14.30
2023-02-23T16:45:47.655Z,14.26
2023-02-23T16:48:15.908Z,14.21
2023-02-23T16:50:44.138Z,14.16
2023-02-23T16:53:12.282Z,14.13
2023-02-23T16:55:46.589Z,14.13
2023-02-23T16:58:19.550Z,14.09
2023-02-23T17:00:47.926Z,14.08
2023-02-23T17:03:20.064Z,14.07
2023-02-23T17:05:47.133Z,14.05
2023-02-23T17:08:13.928Z,14.02
2023-02-23T17:10:48.719Z,13.98
2023-02-23T17:13:19.491Z,13.93
2023-02-23T17:15:50.866Z,13.90
2023-02-23T17:18:18.545Z,13.88
2023-02-23T17:20:45.783Z,13.87
2023-02-23T17:23:18.323Z,13.82
2023-02-23T17:25:45.968Z,13.80
2023-02-23T17:28:15.843Z,13.76
2023-02-23T17:30:43.772Z,13.71
2023-02-23T17:33:14.583Z,13.69
2023-02-23T17:35:41.974Z,13.62
2023-02-23T17:38:10.337Z,13.40
2023-02-23T17:40:37.475Z,13.01
2023-02-23T17:43:07.181Z,12.73
2023-02-23T17:45:34.073Z,12.57
2023-02-23T17:48:01.210Z,12.46
2023-02-23T17:50:29.772Z,12.35
2023-02-23T17:52:57.822Z,12.20
2023-02-23T17:55:25.539Z,12.23
2023-02-23T17:57:52.683Z,12.26
2023-02-23T18:00:20.723Z,12.32
2023-02-23T18:02:47.700Z,12.39
2023-02-23T18:05:16.615Z,12.40
2023-02-23T18:07:48.065Z,12.41
2023-02-23T18:10:15.740Z,12.47
2023-02-23T18:12:42.796Z,12.52
2023-02-23T18:15:10.621Z,12.39
2023-02-23T18:17:37.370Z,12.16
2023-02-23T18:20:06.768Z,12.11
2023-02-23T18:22:33.848Z,12.07
2023-02-23T18:25:04.614Z,11.94
2023-02-23T18:27:31.412Z,11.88
2023-02-23T18:29:58.189Z,11.76
2023-02-23T18:32:25.422Z,11.69
2023-02-23T18:34:52.270Z,11.66
2023-02-23T18:37:19.353Z,11.59
2023-02-23T18:39:46.272Z,11.57
2023-02-23T18:42:15.723Z,11.51
2023-02-23T18:44:42.565Z,11.20
2023-02-23T18:47:09.468Z,11.32
2023-02-23T18:49:36.306Z,11.43
2023-02-23T18:52:03.264Z,11.51
2023-02-23T18:54:30.102Z,11.61
2023-02-23T18:56:57.503Z,11.60
2023-02-23T18:59:25.969Z,11.44
2023-02-23T19:01:53.017Z,11.24
2023-02-23T19:04:20.654Z,11.18
2023-02-23T19:06:48.409Z,11.26
2023-02-23T19:09:15.654Z,11.19
2023-02-23T19:11:43.356Z,11.15
2023-02-23T19:14:14.574Z,11.20
2023-02-23T19:16:44.375Z,11.16
2023-02-23T19:19:11.768Z,11.21
2023-02-23T19:21:39.666Z,11.31
2023-02-23T19:24:07.877Z,11.43
2023-02-23T19:26:36.643Z,11.53
2023-02-23T19:29:03.567Z,11.62
2023-02-23T19:31:30.646Z,11.65
2023-02-23T19:33:59.063Z,11.67
2023-02-23T19:36:28.531Z,11.58
2023-02-23T19:38:58.492Z,11.40
2023-02-23T19:41:28.053Z,11.31
2023-02-23T19:43:55.282Z,11.15
2023-02-23T19:46:22.245Z,10.94
2023-02-23T19:48:49.310Z,10.90
2023-02-23T19:51:17.931Z,10.83
2023-02-23T19:53:45.035Z,10.89
2023-02-23T19:56:14.876Z,11.17
2023-02-23T19:58:42.220Z,11.31
2023-02-23T20:01:12.381Z,11.34
2023-02-23T20:03:39.843Z,11.29
2023-02-23T20:06:08.150Z,11.15
2023-02-23T20:08:36.256Z,11.05
2023-02-23T20:11:06.026Z,11.11
2023-02-23T20:13:33.351Z,11.13
2023-02-23T20:16:01.783Z,11.16
2023-02-23T20:18:28.834Z,10.98
2023-02-23T20:20:55.779Z,10.66
2023-02-23T20:23:22.565Z,10.60
2023-02-23T20:25:50.910Z,10.55
2023-02-23T20:28:17.715Z,10.42
2023-02-23T20:30:46.433Z,10.41
2023-02-23T20:33:13.733Z,10.46
2023-02-23T20:35:41.620Z,10.54
2023-02-23T20:38:08.666Z,10.69
2023-02-23T20:40:35.985Z,10.81
2023-02-23T20:43:04.341Z,10.95
2023-02-23T20:45:31.145Z,11.04
2023-02-23T20:47:58.024Z,11.13
2023-02-23T20:50:27.262Z,11.22
2023-02-23T20:52:54.762Z,11.23
2023-02-23T20:55:21.573Z,11.03
2023-02-23T20:57:48.390Z,11.01
2023-02-23T21:00:18.103Z,11.00
2023-02-23T21:02:45.222Z,10.68
2023-02-23T21:05:12.061Z,10.28
2023-02-23T21:07:39.394Z,10.41
2023-02-23T21:10:08.071Z,10.45
2023-02-23T21:12:35.848Z,10.30
2023-02-23T21:15:04.112Z,10.22
2023-02-23T21:17:34.158Z,10.25
2023-02-23T21:20:01.462Z,10.36
2023-02-23T21:22:28.534Z,10.51
2023-02-23T21:24:55.370Z,10.60
2023-02-23T21:27:22.121Z,10.69
2023-02-23T21:29:49.490Z,10.75
2023-02-23T21:32:16.530Z,10.87
2023-02-23T21:34:44.725Z,10.91
2023-02-23T21:37:11.615Z,10.87
2023-02-23T21:39:38.447Z,10.82
2023-02-23T21:42:05.364Z,10.79
2023-02-23T21:44:32.548Z,10.77
2023-02-23T21:46:59.386Z,10.65
2023-02-23T21:49:26.850Z,10.48
2023-02-23T21:51:54.996Z,10.53
2023-02-23T21:54:24.055Z,10.63
2023-02-23T21:56:50.886Z,10.70
2023-02-23T21:59:17.636Z,10.76
2023-02-23T22:01:44.504Z,10.86
2023-02-23T22:04:14.264Z,10.92
2023-02-23T22:06:44.155Z,10.93
2023-02-23T22:09:13.175Z,10.97
2023-02-23T22:11:45.340Z,11.00
2023-02-23T22:14:12.969Z,10.75
2023-02-23T22:16:40.516Z,10.81
2023-02-23T22:19:08.114Z,10.78
2023-02-23T22:21:38.196Z,10.67
2023-02-23T22:24:06.626Z,10.59
2023-02-23T22:26:37.232Z,10.55
2023-02-23T22:29:05.372Z,10.52
2023-02-23T22:31:32.550Z,10.54
2023-02-23T22:33:59.465Z,10.60
2023-02-23T22:36:26.338Z,10.70
2023-02-23T22:38:57.984Z,10.66
2023-02-23T22:41:24.959Z,10.56
2023-02-23T22:43:53.070Z,10.69
2023-02-23T22:46:19.929Z,10.81
2023-02-23T22:48:46.836Z,10.91
2023-02-23T22:51:16.959Z,10.92
2023-02-23T22:53:43.945Z,10.98
2023-02-23T22:56:11.323Z,11.00
2023-02-23T22:58:38.102Z,10.70
2023-02-23T23:01:06.514Z,10.55
2023-02-23T23:03:38.102Z,10.55
2023-02-23T23:06:07.720Z,10.55
2023-02-23T23:08:38.759Z,10.40
2023-02-23T23:11:08.387Z,10.23
2023-02-23T23:13:38.570Z,10.21
2023-02-23T23:16:09.289Z,10.19
2023-02-23T23:18:37.658Z,10.25
2023-02-23T23:21:04.823Z,10.15
2023-02-23T23:23:31.699Z,10.17
2023-02-23T23:25:58.447Z,10.23
2023-02-23T23:28:25.262Z,10.25
2023-02-23T23:30:52.022Z,10.34
2023-02-23T23:33:20.245Z,10.47
2023-02-23T23:35:46.981Z,10.61
2023-02-23T23:38:13.787Z,10.70
2023-02-23T23:40:40.567Z,10.77
2023-02-23T23:43:07.514Z,10.81
2023-02-23T23:45:34.470Z,10.82
2023-02-23T23:48:01.421Z,10.75
2023-02-23T23:50:29.529Z,10.56
2023-02-23T23:52:56.281Z,10.35
2023-02-23T23:55:23.071Z,10.25
2023-02-23T23:57:49.863Z,10.24
